createdAt,value
2018-02-19T00:00:21.892Z,0.06
2018-02-19T00:01:21.737Z,0.00
2018-02-19T00:02:21.805Z,0.05
2018-02-19T00:03:21.677Z,0.05
2018-02-19T00:04:21.715Z,0.07
2018-02-19T00:05:21.613Z,0.09
2018-02-19T00:06:21.628Z,0.06
2018-02-19T00:07:21.549Z,0.05
2018-02-19T00:08:21.651Z,0.07
2018-02-19T00:09:21.488Z,0.07
2018-02-19T00:10:21.557Z,0.12
2018-02-19T00:11:21.421Z,0.05
2018-02-19T00:12:21.464Z,0.09
2018-02-19T00:13:21.361Z,-0.01
2018-02-19T00:14:21.374Z,0.00
2018-02-19T00:15:21.300Z,0.05
2018-02-19T00:16:21.386Z,0.03
2018-02-19T00:17:21.238Z,-0.12
2018-02-19T00:18:21.303Z,-0.13
2018-02-19T00:19:21.172Z,-0.22
2018-02-19T00:20:21.212Z,-0.23
2018-02-19T00:21:21.109Z,-0.24
2018-02-19T00:22:21.122Z,-0.29
2018-02-19T00:23:21.047Z,-0.27
2018-02-19T00:24:21.141Z,-0.33
2018-02-19T00:25:20.987Z,-0.24
2018-02-19T00:26:21.048Z,-0.26
2018-02-19T00:27:20.922Z,-0.24
2018-02-19T00:28:20.960Z,-0.30
2018-02-19T00:29:20.862Z,-0.31
2018-02-19T00:30:20.973Z,-0.26
2018-02-19T00:31:20.795Z,-0.24
2018-02-19T00:32:20.886Z,-0.34
2018-02-19T00:33:20.734Z,-0.29
2018-02-19T00:34:20.797Z,-0.27
2018-02-19T00:35:20.669Z,-0.18
2018-02-19T00:36:20.710Z,-0.22
2018-02-19T00:37:20.606Z,-0.13
2018-02-19T00:38:20.724Z,-0.16
2018-02-19T00:39:20.549Z,-0.13
2018-02-19T00:40:20.636Z,-0.15
2018-02-19T00:41:20.487Z,-0.22
2018-02-19T00:42:20.548Z,-0.22
2018-02-19T00:43:20.419Z,-0.19
2018-02-19T00:44:20.463Z,-0.22
2018-02-19T00:45:20.359Z,-0.19
2018-02-19T00:46:20.471Z,-0.26
2018-02-19T00:47:20.293Z,-0.19
2018-02-19T00:48:20.385Z,-0.23
2018-02-19T00:49:20.236Z,-0.27
2018-02-19T00:50:20.303Z,-0.18
2018-02-19T00:51:20.169Z,-0.23
2018-02-19T00:52:20.207Z,-0.24
2018-02-19T00:53:20.106Z,-0.15
2018-02-19T00:54:20.221Z,-0.18
2018-02-19T00:55:20.043Z,-0.13
2018-02-19T00:56:20.129Z,-0.12
2018-02-19T00:57:19.986Z,-0.11
2018-02-19T00:58:20.044Z,-0.12
2018-02-19T00:59:19.906Z,-0.12
2018-02-19T01:00:20.060Z,-0.15
2018-02-19T01:01:19.864Z,-0.22
2018-02-19T01:02:19.968Z,-0.19
2018-02-19T01:03:19.792Z,-0.18
2018-02-19T01:04:19.880Z,-0.22
2018-02-19T01:05:19.729Z,-0.22
2018-02-19T01:06:19.795Z,-0.22
2018-02-19T01:07:19.665Z,-0.23
2018-02-19T01:08:19.804Z,-0.23
2018-02-19T01:09:19.603Z,-0.22
2018-02-19T01:10:19.718Z,-0.23
2018-02-19T01:11:19.538Z,-0.24
2018-02-19T01:12:19.622Z,-0.27
2018-02-19T01:13:19.485Z,-0.23
2018-02-19T01:14:19.541Z,-0.23
2018-02-19T01:15:19.413Z,-0.18
2018-02-19T01:16:19.557Z,-0.24
2018-02-19T01:17:19.353Z,-0.16
2018-02-19T01:18:19.464Z,-0.23
2018-02-19T01:19:19.280Z,-0.11
2018-02-19T01:20:19.376Z,0.00
2018-02-19T01:21:19.226Z,0.03
2018-02-19T01:22:19.289Z,-0.13
2018-02-19T01:23:19.160Z,-0.13
2018-02-19T01:24:19.302Z,-0.12
2018-02-19T01:25:19.099Z,-0.13
2018-02-19T01:26:19.215Z,-0.08
2018-02-19T01:27:19.035Z,-0.06
2018-02-19T01:28:19.126Z,0.03
2018-02-19T01:29:18.970Z,-0.04
2018-02-19T01:30:19.038Z,-0.05
2018-02-19T01:31:18.907Z,0.02
2018-02-19T01:32:19.049Z,0.00
2018-02-19T01:33:18.848Z,0.02
2018-02-19T01:34:18.957Z,-0.01
2018-02-19T01:35:18.784Z,0.02
2018-02-19T01:36:18.873Z,0.02
2018-02-19T01:37:18.719Z,0.10
2018-02-19T01:38:18.789Z,0.07
2018-02-19T01:39:18.656Z,0.00
2018-02-19T01:40:18.799Z,0.10
2018-02-19T01:41:18.593Z,0.07
2018-02-19T01:42:18.712Z,0.07
2018-02-19T01:43:18.528Z,0.09
2018-02-19T01:44:18.623Z,0.12
2018-02-19T01:45:18.470Z,0.12
2018-02-19T01:46:18.636Z,0.12
2018-02-19T01:47:18.439Z,0.18
2018-02-19T01:48:18.549Z,0.10
2018-02-19T01:49:18.342Z,0.20
2018-02-19T01:50:18.458Z,0.12
2018-02-19T01:51:18.278Z,0.07
2018-02-19T01:52:18.369Z,0.07
2018-02-19T01:53:18.211Z,0.06
2018-02-19T01:54:18.375Z,0.15
2018-02-19T01:55:18.176Z,0.06
2018-02-19T01:56:18.349Z,0.10
2018-02-19T01:57:18.088Z,0.06
2018-02-19T01:58:18.208Z,0.03
2018-02-19T01:59:18.025Z,0.10
2018-02-19T02:00:18.120Z,-0.01
2018-02-19T02:01:17.962Z,0.07
2018-02-19T02:02:18.135Z,0.03
2018-02-19T02:03:17.897Z,0.07
2018-02-19T02:04:18.050Z,0.09
2018-02-19T02:05:17.834Z,0.09
2018-02-19T02:06:18.003Z,0.06
2018-02-19T02:07:17.770Z,-0.01
2018-02-19T02:08:17.866Z,-0.04
2018-02-19T02:09:17.709Z,-0.04
2018-02-19T02:10:17.889Z,0.02
2018-02-19T02:11:17.647Z,-0.04
2018-02-19T02:12:17.690Z,-0.08
2018-02-19T02:13:17.585Z,-0.04
2018-02-19T02:14:17.606Z,-0.13
2018-02-19T02:15:17.523Z,-0.08
2018-02-19T02:16:17.517Z,0.02
2018-02-19T02:17:17.456Z,-0.16
2018-02-19T02:18:17.531Z,0.02
2018-02-19T02:19:17.393Z,-0.12
2018-02-19T02:20:17.439Z,-0.08
2018-02-19T02:21:17.328Z,-0.08
2018-02-19T02:22:17.351Z,-0.12
2018-02-19T02:23:17.264Z,-0.16
2018-02-19T02:24:17.262Z,-0.18
2018-02-19T02:25:17.202Z,-0.19
2018-02-19T02:26:17.276Z,-0.16
2018-02-19T02:27:17.140Z,-0.18
2018-02-19T02:28:17.188Z,-0.22
2018-02-19T02:29:17.074Z,-0.19
2018-02-19T02:30:17.100Z,-0.24
2018-02-19T02:31:17.011Z,-0.24
2018-02-19T02:32:17.112Z,-0.26
2018-02-19T02:33:16.948Z,-0.27
2018-02-19T02:34:17.028Z,-0.24
2018-02-19T02:35:16.890Z,-0.33
2018-02-19T02:36:16.940Z,-0.33
2018-02-19T02:37:16.823Z,-0.24
2018-02-19T02:38:16.847Z,-0.33
2018-02-19T02:39:16.761Z,-0.23
2018-02-19T02:40:16.864Z,-0.24
2018-02-19T02:41:16.695Z,-0.23
2018-02-19T02:42:16.773Z,-0.34
2018-02-19T02:43:16.633Z,-0.29
2018-02-19T02:44:16.686Z,-0.27
2018-02-19T02:45:16.570Z,-0.37
2018-02-19T02:46:16.602Z,-0.27
2018-02-19T02:47:16.504Z,-0.26
2018-02-19T02:48:16.604Z,-0.34
2018-02-19T02:49:16.442Z,-0.24
2018-02-19T02:50:16.522Z,-0.24
2018-02-19T02:51:16.384Z,-0.33
2018-02-19T02:52:16.432Z,-0.27
2018-02-19T02:53:16.315Z,-0.27
2018-02-19T02:54:16.346Z,-0.34
2018-02-19T02:55:16.252Z,-0.34
2018-02-19T02:56:16.360Z,-0.34
2018-02-19T02:57:16.189Z,-0.26
2018-02-19T02:58:16.273Z,-0.27
2018-02-19T02:59:16.126Z,-0.36
2018-02-19T03:00:16.182Z,-0.33
2018-02-19T03:01:16.064Z,-0.34
2018-02-19T03:02:16.090Z,-0.36
2018-02-19T03:03:15.999Z,-0.33
2018-02-19T03:04:16.107Z,-0.31
2018-02-19T03:05:15.934Z,-0.37
2018-02-19T03:06:16.020Z,-0.31
2018-02-19T03:07:15.874Z,-0.37
2018-02-19T03:08:15.930Z,-0.33
2018-02-19T03:09:15.802Z,-0.33
2018-02-19T03:10:15.838Z,-0.37
2018-02-19T03:11:15.745Z,-0.26
2018-02-19T03:12:15.857Z,-0.33
2018-02-19T03:13:15.677Z,-0.29
2018-02-19T03:14:15.767Z,-0.30
2018-02-19T03:15:15.618Z,-0.27
2018-02-19T03:16:15.678Z,-0.30
2018-02-19T03:17:15.554Z,-0.30
2018-02-19T03:18:15.589Z,-0.30
2018-02-19T03:19:15.499Z,-0.24
2018-02-19T03:20:15.608Z,-0.24
2018-02-19T03:21:15.431Z,-0.24
2018-02-19T03:22:15.510Z,-0.23
2018-02-19T03:23:15.362Z,-0.18
2018-02-19T03:24:15.428Z,-0.23
2018-02-19T03:25:15.302Z,-0.22
2018-02-19T03:26:15.441Z,-0.23
2018-02-19T03:27:15.236Z,-0.15
2018-02-19T03:28:15.353Z,-0.15
2018-02-19T03:29:15.173Z,-0.19
2018-02-19T03:30:15.265Z,-0.12
2018-02-19T03:31:15.110Z,-0.12
2018-02-19T03:32:15.177Z,-0.11
2018-02-19T03:33:15.050Z,-0.13
2018-02-19T03:34:15.190Z,-0.08
2018-02-19T03:35:14.982Z,-0.08
2018-02-19T03:36:15.100Z,-0.06
2018-02-19T03:37:14.920Z,-0.15
2018-02-19T03:38:15.013Z,0.02
2018-02-19T03:39:14.857Z,-0.15
2018-02-19T03:40:14.918Z,-0.12
2018-02-19T03:41:14.791Z,-0.06
2018-02-19T03:42:14.939Z,-0.05
2018-02-19T03:43:14.730Z,0.02
2018-02-19T03:44:14.849Z,-0.08
2018-02-19T03:45:14.667Z,-0.04
2018-02-19T03:46:14.762Z,-0.04
2018-02-19T03:47:14.602Z,-0.04
2018-02-19T03:48:14.673Z,-0.04
2018-02-19T03:49:14.540Z,-0.01
2018-02-19T03:50:14.690Z,-0.04
2018-02-19T03:51:14.476Z,0.09
2018-02-19T03:52:14.497Z,0.09
2018-02-19T03:53:14.414Z,0.03
2018-02-19T03:54:14.510Z,0.03
2018-02-19T03:55:14.354Z,0.09
2018-02-19T03:56:14.425Z,0.02
2018-02-19T03:57:14.286Z,0.06
2018-02-19T03:58:14.450Z,0.03
2018-02-19T03:59:14.220Z,0.05
2018-02-19T04:00:14.348Z,0.06
2018-02-19T04:01:14.161Z,0.10
2018-02-19T04:02:14.256Z,0.09
2018-02-19T04:03:14.103Z,0.10
2018-02-19T04:04:14.169Z,0.12
2018-02-19T04:05:14.027Z,0.13
2018-02-19T04:06:14.192Z,0.10
2018-02-19T04:07:13.969Z,0.06
2018-02-19T04:08:14.098Z,0.15
2018-02-19T04:09:13.913Z,0.15
2018-02-19T04:10:14.009Z,0.18
2018-02-19T04:11:13.843Z,0.20
2018-02-19T04:12:13.919Z,0.20
2018-02-19T04:13:13.785Z,0.24
2018-02-19T04:14:13.939Z,0.15
2018-02-19T04:15:13.710Z,0.27
2018-02-19T04:16:13.846Z,0.30
2018-02-19T04:17:13.653Z,0.15
2018-02-19T04:18:13.756Z,0.18
2018-02-19T04:19:13.594Z,0.23
2018-02-19T04:20:13.770Z,0.27
2018-02-19T04:21:13.527Z,0.24
2018-02-19T04:22:13.686Z,0.16
2018-02-19T04:23:13.466Z,0.15
2018-02-19T04:24:13.592Z,0.24
2018-02-19T04:25:13.416Z,0.15
2018-02-19T04:26:13.504Z,0.16
2018-02-19T04:27:13.336Z,0.20
2018-02-19T04:28:13.518Z,0.25
2018-02-19T04:29:13.273Z,0.24
2018-02-19T04:30:13.428Z,0.30
2018-02-19T04:31:13.208Z,0.20
2018-02-19T04:32:13.341Z,0.25
2018-02-19T04:33:13.150Z,0.13
2018-02-19T04:34:13.168Z,0.24
2018-02-19T04:35:13.083Z,0.27
2018-02-19T04:36:13.165Z,0.28
2018-02-19T04:37:13.022Z,0.28
2018-02-19T04:38:13.077Z,0.31
2018-02-19T04:39:12.957Z,0.30
2018-02-19T04:40:12.988Z,0.28
2018-02-19T04:41:12.882Z,0.31
2018-02-19T04:42:12.927Z,0.38
2018-02-19T04:43:12.839Z,0.39
2018-02-19T04:44:12.914Z,0.39
2018-02-19T04:45:12.766Z,0.39
2018-02-19T04:46:12.823Z,0.41
2018-02-19T04:47:12.703Z,0.36
2018-02-19T04:48:12.735Z,0.39
2018-02-19T04:49:12.646Z,0.39
2018-02-19T04:50:12.646Z,0.39
2018-02-19T04:51:12.576Z,0.43
2018-02-19T04:52:12.665Z,0.41
2018-02-19T04:53:12.514Z,0.42
2018-02-19T04:54:12.570Z,0.43
2018-02-19T04:55:12.450Z,0.49
2018-02-19T04:56:12.487Z,0.51
2018-02-19T04:57:12.391Z,0.46
2018-02-19T04:58:12.399Z,0.48
2018-02-19T04:59:12.322Z,0.48
2018-02-19T05:00:12.411Z,0.42
2018-02-19T05:01:12.265Z,0.45
2018-02-19T05:02:12.323Z,0.48
2018-02-19T05:03:12.199Z,0.48
2018-02-19T05:04:12.236Z,0.42
2018-02-19T05:05:12.135Z,0.57
2018-02-19T05:06:12.247Z,0.61
2018-02-19T05:07:12.072Z,0.57
2018-02-19T05:08:12.158Z,0.61
2018-02-19T05:09:12.010Z,0.49
2018-02-19T05:10:12.071Z,0.46
2018-02-19T05:11:11.944Z,0.61
2018-02-19T05:12:11.978Z,0.57
2018-02-19T05:13:11.881Z,0.53
2018-02-19T05:14:11.997Z,0.42
2018-02-19T05:15:11.819Z,0.61
2018-02-19T05:16:11.909Z,0.61
2018-02-19T05:17:11.755Z,0.64
2018-02-19T05:18:11.818Z,0.57
2018-02-19T05:19:11.695Z,0.52
2018-02-19T05:20:11.731Z,0.58
2018-02-19T05:21:11.632Z,0.53
2018-02-19T05:22:11.743Z,0.57
2018-02-19T05:23:11.570Z,0.64
2018-02-19T05:24:11.656Z,0.65
2018-02-19T05:25:11.503Z,0.61
2018-02-19T05:26:11.568Z,0.64
2018-02-19T05:27:11.441Z,0.64
2018-02-19T05:28:11.582Z,0.67
2018-02-19T05:29:11.380Z,0.68
2018-02-19T05:30:11.491Z,0.71
2018-02-19T05:31:11.315Z,0.60
2018-02-19T05:32:11.406Z,0.64
2018-02-19T05:33:11.248Z,0.71
2018-02-19T05:34:11.320Z,0.67
2018-02-19T05:35:11.186Z,0.67
2018-02-19T05:36:11.229Z,0.68
2018-02-19T05:37:11.142Z,0.76
2018-02-19T05:38:11.244Z,0.65
2018-02-19T05:39:11.054Z,0.71
2018-02-19T05:40:11.154Z,0.67
2018-02-19T05:41:11.005Z,0.64
2018-02-19T05:42:11.067Z,0.67
2018-02-19T05:43:10.935Z,0.64
2018-02-19T05:44:10.978Z,0.68
2018-02-19T05:45:10.877Z,0.64
2018-02-19T05:46:10.992Z,0.64
2018-02-19T05:47:10.812Z,0.67
2018-02-19T05:48:10.902Z,0.75
2018-02-19T05:49:10.747Z,0.65
2018-02-19T05:50:10.812Z,0.68
2018-02-19T05:51:10.685Z,0.72
2018-02-19T05:52:10.824Z,0.70
2018-02-19T05:53:10.624Z,0.78
2018-02-19T05:54:10.732Z,0.79
2018-02-19T05:55:10.563Z,0.72
2018-02-19T05:56:10.648Z,0.82
2018-02-19T05:57:10.496Z,0.76
2018-02-19T05:58:10.564Z,0.78
2018-02-19T05:59:10.432Z,0.79
2018-02-19T06:00:10.582Z,0.82
2018-02-19T06:01:10.373Z,0.88
2018-02-19T06:02:10.486Z,0.78
2018-02-19T06:03:10.311Z,0.86
2018-02-19T06:04:10.399Z,0.85
2018-02-19T06:05:10.244Z,0.96
2018-02-19T06:06:10.315Z,0.83
2018-02-19T06:07:10.183Z,0.92
2018-02-19T06:08:10.323Z,0.85
2018-02-19T06:09:10.120Z,0.90
2018-02-19T06:10:10.233Z,0.85
2018-02-19T06:11:10.057Z,0.89
2018-02-19T06:12:10.146Z,0.89
2018-02-19T06:13:09.994Z,0.85
2018-02-19T06:14:10.057Z,0.85
2018-02-19T06:15:09.932Z,0.83
2018-02-19T06:16:10.071Z,0.88
2018-02-19T06:17:09.869Z,0.85
2018-02-19T06:18:09.982Z,0.85
2018-02-19T06:19:09.815Z,0.79
2018-02-19T06:20:09.900Z,0.83
2018-02-19T06:21:09.743Z,0.92
2018-02-19T06:22:09.909Z,0.86
2018-02-19T06:23:09.681Z,0.90
2018-02-19T06:24:09.818Z,0.88
2018-02-19T06:25:09.616Z,0.89
2018-02-19T06:26:09.732Z,0.88
2018-02-19T06:27:09.552Z,0.86
2018-02-19T06:28:09.644Z,0.86
2018-02-19T06:29:09.496Z,0.85
2018-02-19T06:30:09.658Z,0.85
2018-02-19T06:31:09.429Z,0.86
2018-02-19T06:32:09.567Z,0.89
2018-02-19T06:33:09.367Z,0.94
2018-02-19T06:34:09.479Z,0.92
2018-02-19T06:35:09.304Z,0.80
2018-02-19T06:36:09.395Z,0.89
2018-02-19T06:37:09.255Z,0.85
2018-02-19T06:38:09.405Z,0.90
2018-02-19T06:39:09.175Z,0.83
2018-02-19T06:40:09.316Z,0.85
2018-02-19T06:41:09.147Z,0.88
2018-02-19T06:42:09.229Z,0.89
2018-02-19T06:43:09.046Z,0.79
2018-02-19T06:44:09.140Z,0.94
2018-02-19T06:45:08.988Z,0.89
2018-02-19T06:46:09.153Z,0.92
2018-02-19T06:47:08.924Z,0.92
2018-02-19T06:48:09.065Z,0.89
2018-02-19T06:49:08.864Z,0.88
2018-02-19T06:50:08.976Z,0.89
2018-02-19T06:51:08.801Z,0.78
2018-02-19T06:52:08.888Z,0.92
2018-02-19T06:53:08.736Z,0.82
2018-02-19T06:54:08.900Z,0.96
2018-02-19T06:55:08.677Z,0.94
2018-02-19T06:56:08.811Z,0.88
2018-02-19T06:57:08.607Z,0.86
2018-02-19T06:58:08.623Z,0.90
2018-02-19T06:59:08.551Z,0.85
2018-02-19T07:00:08.638Z,0.90
2018-02-19T07:01:08.489Z,0.92
2018-02-19T07:02:08.547Z,0.90
2018-02-19T07:03:08.429Z,0.94
2018-02-19T07:04:08.460Z,0.96
2018-02-19T07:05:08.366Z,0.89
2018-02-19T07:06:08.373Z,0.89
2018-02-19T07:07:08.298Z,0.94
2018-02-19T07:08:08.384Z,0.98
2018-02-19T07:09:08.238Z,1.01
2018-02-19T07:10:08.293Z,0.96
2018-02-19T07:11:08.175Z,0.98
2018-02-19T07:12:08.208Z,1.00
2018-02-19T07:13:08.114Z,1.01
2018-02-19T07:14:08.243Z,1.03
2018-02-19T07:15:08.050Z,1.01
2018-02-19T07:16:08.133Z,1.01
2018-02-19T07:17:07.987Z,1.07
2018-02-19T07:18:08.046Z,1.01
2018-02-19T07:19:07.926Z,1.04
2018-02-19T07:20:07.956Z,1.12
2018-02-19T07:21:07.861Z,1.10
2018-02-19T07:22:07.969Z,1.03
2018-02-19T07:23:07.804Z,1.08
2018-02-19T07:24:07.882Z,1.03
2018-02-19T07:25:07.754Z,1.01
2018-02-19T07:26:07.801Z,1.10
2018-02-19T07:27:07.681Z,1.12
2018-02-19T07:28:07.698Z,1.03
2018-02-19T07:29:07.614Z,1.03
2018-02-19T07:30:07.723Z,1.07
2018-02-19T07:31:07.551Z,1.10
2018-02-19T07:32:07.630Z,1.08
2018-02-19T07:33:07.500Z,1.18
2018-02-19T07:34:07.541Z,1.19
2018-02-19T07:35:07.418Z,1.10
2018-02-19T07:36:07.452Z,1.16
2018-02-19T07:37:07.368Z,1.21
2018-02-19T07:38:07.467Z,1.08
2018-02-19T07:39:07.301Z,1.15
2018-02-19T07:40:07.378Z,1.14
2018-02-19T07:41:07.244Z,1.14
2018-02-19T07:42:07.289Z,1.16
2018-02-19T07:43:07.176Z,1.12
2018-02-19T07:44:07.306Z,1.21
2018-02-19T07:45:07.116Z,1.32
2018-02-19T07:46:07.215Z,1.28
2018-02-19T07:47:07.052Z,1.32
2018-02-19T07:48:07.127Z,1.22
2018-02-19T07:49:06.992Z,1.24
2018-02-19T07:50:07.056Z,1.29
2018-02-19T07:51:06.930Z,1.28
2018-02-19T07:52:07.054Z,1.25
2018-02-19T07:53:06.866Z,1.22
2018-02-19T07:54:06.964Z,1.21
2018-02-19T07:55:06.797Z,1.36
2018-02-19T07:56:06.877Z,1.34
2018-02-19T07:57:06.745Z,1.37
2018-02-19T07:58:06.737Z,1.36
2018-02-19T07:59:06.683Z,1.26
2018-02-19T08:00:06.800Z,1.39
2018-02-19T08:01:06.618Z,1.37
2018-02-19T08:02:06.715Z,1.34
2018-02-19T08:03:06.556Z,1.39
2018-02-19T08:04:06.627Z,1.39
2018-02-19T08:05:06.497Z,1.46
2018-02-19T08:06:06.538Z,1.46
2018-02-19T08:07:06.435Z,1.43
2018-02-19T08:08:06.550Z,1.44
2018-02-19T08:09:06.373Z,1.42
2018-02-19T08:10:06.474Z,1.44
2018-02-19T08:11:06.308Z,1.51
2018-02-19T08:12:06.372Z,1.51
2018-02-19T08:13:06.247Z,1.51
2018-02-19T08:14:06.388Z,1.61
2018-02-19T08:15:06.175Z,1.55
2018-02-19T08:16:06.298Z,1.68
2018-02-19T08:17:06.125Z,1.58
2018-02-19T08:18:06.212Z,1.52
2018-02-19T08:19:06.062Z,1.61
2018-02-19T08:20:06.121Z,1.65
2018-02-19T08:21:06.000Z,1.64
2018-02-19T08:22:06.135Z,1.69
2018-02-19T08:23:05.935Z,1.76
2018-02-19T08:24:06.044Z,1.73
2018-02-19T08:25:05.878Z,1.78
2018-02-19T08:26:05.956Z,1.73
2018-02-19T08:27:05.814Z,1.79
2018-02-19T08:28:05.868Z,1.76
2018-02-19T08:29:05.754Z,1.80
2018-02-19T08:30:05.897Z,1.79
2018-02-19T08:31:05.690Z,1.78
2018-02-19T08:32:05.793Z,1.76
2018-02-19T08:33:05.629Z,1.79
2018-02-19T08:34:05.708Z,1.79
2018-02-19T08:35:05.574Z,1.83
2018-02-19T08:36:05.720Z,1.91
2018-02-19T08:37:05.507Z,1.90
2018-02-19T08:38:05.631Z,1.87
2018-02-19T08:39:05.462Z,1.90
2018-02-19T08:40:05.545Z,2.01
2018-02-19T08:41:05.385Z,1.94
2018-02-19T08:42:05.451Z,1.99
2018-02-19T08:43:05.321Z,1.99
2018-02-19T08:44:05.385Z,2.02
2018-02-19T08:45:05.262Z,2.13
2018-02-19T08:46:05.381Z,2.08
2018-02-19T08:47:05.198Z,2.04
2018-02-19T08:48:05.283Z,2.13
2018-02-19T08:49:05.138Z,2.15
2018-02-19T08:50:05.297Z,2.20
2018-02-19T08:51:05.077Z,2.19
2018-02-19T08:52:05.222Z,2.20
2018-02-19T08:53:05.010Z,2.23
2018-02-19T08:54:05.129Z,2.20
2018-02-19T08:55:04.953Z,2.19
2018-02-19T08:56:04.937Z,2.15
2018-02-19T08:57:04.894Z,2.22
2018-02-19T08:58:05.054Z,2.20
2018-02-19T08:59:04.833Z,2.28
2018-02-19T09:00:04.964Z,2.19
2018-02-19T09:01:04.771Z,2.22
2018-02-19T09:02:04.876Z,2.34
2018-02-19T09:03:04.711Z,2.28
2018-02-19T09:04:04.897Z,2.28
2018-02-19T09:05:04.649Z,2.31
2018-02-19T09:06:04.803Z,2.31
2018-02-19T09:07:04.586Z,2.27
2018-02-19T09:08:04.616Z,2.35
2018-02-19T09:09:04.529Z,2.28
2018-02-19T09:10:04.628Z,2.37
2018-02-19T09:11:04.469Z,2.38
2018-02-19T09:12:04.642Z,2.40
2018-02-19T09:13:04.404Z,2.33
2018-02-19T09:14:04.551Z,2.40
2018-02-19T09:15:04.344Z,2.37
2018-02-19T09:16:04.466Z,2.40
2018-02-19T09:17:04.282Z,2.44
2018-02-19T09:18:04.372Z,2.45
2018-02-19T09:19:04.221Z,2.48
2018-02-19T09:20:04.386Z,2.48
2018-02-19T09:21:04.160Z,2.49
2018-02-19T09:22:04.199Z,2.48
2018-02-19T09:23:04.101Z,2.51
2018-02-19T09:24:04.102Z,2.53
2018-02-19T09:25:04.042Z,2.48
2018-02-19T09:26:04.123Z,2.48
2018-02-19T09:27:03.978Z,2.46
2018-02-19T09:28:04.033Z,2.56
2018-02-19T09:29:03.920Z,2.53
2018-02-19T09:30:03.944Z,2.49
2018-02-19T09:31:03.856Z,2.55
2018-02-19T09:32:03.855Z,2.46
2018-02-19T09:33:03.798Z,2.53
2018-02-19T09:34:03.893Z,2.52
2018-02-19T09:35:03.739Z,2.52
2018-02-19T09:36:03.780Z,2.63
2018-02-19T09:37:03.675Z,2.63
2018-02-19T09:38:03.693Z,2.64
2018-02-19T09:39:03.613Z,2.66
2018-02-19T09:40:03.704Z,2.73
2018-02-19T09:41:03.552Z,2.77
2018-02-19T09:42:03.619Z,2.73
2018-02-19T09:43:03.489Z,2.73
2018-02-19T09:44:03.461Z,2.76
2018-02-19T09:45:03.536Z,2.76
2018-02-19T09:46:03.411Z,2.74
2018-02-19T09:47:03.449Z,2.79
2018-02-19T09:48:03.342Z,2.77
2018-02-19T09:49:03.318Z,2.73
2018-02-19T09:50:03.283Z,2.79
2018-02-19T09:51:03.277Z,2.87
2018-02-19T09:52:03.225Z,2.87
2018-02-19T09:53:03.338Z,2.87
2018-02-19T09:54:03.161Z,2.89
2018-02-19T09:55:03.201Z,2.89
2018-02-19T09:56:03.099Z,2.95
2018-02-19T09:57:03.117Z,2.91
2018-02-19T09:58:03.047Z,2.89
2018-02-19T09:59:03.122Z,2.95
2018-02-19T10:00:02.981Z,2.98
2018-02-19T10:01:03.038Z,3.05
2018-02-19T10:02:02.918Z,3.06
2018-02-19T10:03:02.946Z,3.07
2018-02-19T10:04:02.863Z,3.03
2018-02-19T10:05:02.855Z,3.09
2018-02-19T10:06:02.800Z,3.05
2018-02-19T10:07:02.871Z,2.98
2018-02-19T10:08:02.742Z,3.03
2018-02-19T10:09:02.782Z,2.98
2018-02-19T10:10:02.695Z,2.95
2018-02-19T10:11:02.694Z,2.94
2018-02-19T10:12:02.655Z,2.95
2018-02-19T10:13:02.597Z,2.95
2018-02-19T10:14:02.560Z,3.00
2018-02-19T10:15:02.621Z,3.10
2018-02-19T10:16:02.505Z,3.10
2018-02-19T10:17:02.531Z,3.07
2018-02-19T10:18:02.441Z,3.21
2018-02-19T10:19:02.441Z,3.21
2018-02-19T10:20:02.385Z,3.25
2018-02-19T10:21:02.459Z,3.34
2018-02-19T10:22:02.316Z,3.33
2018-02-19T10:23:02.369Z,3.33
2018-02-19T10:24:02.260Z,3.28
2018-02-19T10:25:02.279Z,3.36
2018-02-19T10:26:02.202Z,3.49
2018-02-19T10:27:02.192Z,3.47
2018-02-19T10:28:02.143Z,3.49
2018-02-19T10:29:02.206Z,3.53
2018-02-19T10:30:02.082Z,3.44
2018-02-19T10:31:02.115Z,3.50
2018-02-19T10:32:02.023Z,3.57
2018-02-19T10:33:02.017Z,3.64
2018-02-19T10:34:01.966Z,3.57
2018-02-19T10:35:02.043Z,3.68
2018-02-19T10:36:01.916Z,3.70
2018-02-19T10:37:01.954Z,3.71
2018-02-19T10:38:01.845Z,3.71
2018-02-19T10:39:01.866Z,3.71
2018-02-19T10:40:01.782Z,3.76
2018-02-19T10:41:01.777Z,3.65
2018-02-19T10:42:01.729Z,3.71
2018-02-19T10:43:02.836Z,3.68
2018-02-19T10:44:01.679Z,3.71
2018-02-19T10:45:01.701Z,3.67
2018-02-19T10:46:01.607Z,3.79
2018-02-19T10:47:01.617Z,3.82
2018-02-19T10:48:01.548Z,3.78
2018-02-19T10:49:01.634Z,3.85
2018-02-19T10:50:01.487Z,3.96
2018-02-19T10:51:01.554Z,3.88
2018-02-19T10:52:01.430Z,3.94
2018-02-19T10:53:01.449Z,3.96
2018-02-19T10:54:01.419Z,4.00
2018-02-19T10:55:01.367Z,3.98
2018-02-19T10:56:01.311Z,4.01
2018-02-19T10:57:01.372Z,4.00
2018-02-19T10:58:01.255Z,3.98
2018-02-19T10:59:01.294Z,3.98
2018-02-19T11:00:01.197Z,4.06
2018-02-19T11:01:01.198Z,4.10
2018-02-19T11:02:01.140Z,4.07
2018-02-19T11:03:03.160Z,4.16
2018-02-19T11:04:01.074Z,4.06
2018-02-19T11:05:01.124Z,4.12
2018-02-19T11:06:01.022Z,4.19
2018-02-19T11:07:01.039Z,4.18
2018-02-19T11:08:00.959Z,4.21
2018-02-19T11:09:00.948Z,4.22
2018-02-19T11:10:00.905Z,4.21
2018-02-19T11:11:00.963Z,4.15
2018-02-19T11:12:00.845Z,4.19
2018-02-19T11:13:00.876Z,4.19
2018-02-19T11:14:00.788Z,4.16
2018-02-19T11:15:00.784Z,4.16
2018-02-19T11:16:00.728Z,4.18
2018-02-19T11:17:00.798Z,4.21
2018-02-19T11:18:00.670Z,4.25
2018-02-19T11:19:00.712Z,4.33
2018-02-19T11:20:00.612Z,4.36
2018-02-19T11:21:00.620Z,4.51
2018-02-19T11:22:00.553Z,4.54
2018-02-19T11:23:00.634Z,4.52
2018-02-19T11:24:00.496Z,4.59
2018-02-19T11:25:00.544Z,4.58
2018-02-19T11:26:00.439Z,4.62
2018-02-19T11:27:00.457Z,4.72
2018-02-19T11:28:00.381Z,4.77
2018-02-19T11:29:00.369Z,4.70
2018-02-19T11:30:00.321Z,4.76
2018-02-19T11:31:00.381Z,4.67
2018-02-19T11:32:00.265Z,4.72
2018-02-19T11:33:00.296Z,4.77
2018-02-19T11:34:00.213Z,4.75
2018-02-19T11:35:00.199Z,4.83
2018-02-19T11:36:00.152Z,4.88
2018-02-19T11:37:00.218Z,5.01
2018-02-19T11:38:00.094Z,5.05
2018-02-19T11:39:00.132Z,5.16
2018-02-19T11:40:00.035Z,5.17
2018-02-19T11:41:00.043Z,5.25
2018-02-19T11:41:59.979Z,5.35
2018-02-19T11:43:00.056Z,5.46
2018-02-19T11:43:59.933Z,5.73
2018-02-19T11:44:59.969Z,5.73
2018-02-19T11:45:59.866Z,5.74
2018-02-19T11:46:59.878Z,5.83
2018-02-19T11:47:59.807Z,6.00
2018-02-19T11:48:59.894Z,6.19
2018-02-19T11:49:59.751Z,6.33
2018-02-19T11:50:59.805Z,6.46
2018-02-19T11:51:59.698Z,6.61
2018-02-19T11:52:59.757Z,6.47
2018-02-19T11:53:59.640Z,6.41
2018-02-19T11:54:59.627Z,6.38
2018-02-19T11:55:59.586Z,6.38
2018-02-19T11:56:59.641Z,6.35
2018-02-19T11:57:59.534Z,6.54
2018-02-19T11:58:59.552Z,6.72
2018-02-19T11:59:59.486Z,6.77
2018-02-19T12:00:59.466Z,7.09
2018-02-19T12:01:59.424Z,7.13
2018-02-19T12:02:59.479Z,7.22
2018-02-19T12:03:59.376Z,7.35
2018-02-19T12:04:59.393Z,7.42
2018-02-19T12:05:59.326Z,7.55
2018-02-19T12:06:59.300Z,7.62
2018-02-19T12:07:59.260Z,7.62
2018-02-19T12:08:59.315Z,7.66
2018-02-19T12:09:59.211Z,7.75
2018-02-19T12:10:59.228Z,7.79
2018-02-19T12:11:59.163Z,8.03
2018-02-19T12:12:59.240Z,8.17
2018-02-19T12:13:59.101Z,8.42
2018-02-19T12:14:59.152Z,8.36
2018-02-19T12:15:59.057Z,8.45
2018-02-19T12:16:59.063Z,8.40
2018-02-19T12:17:59.007Z,8.54
2018-02-19T12:18:59.078Z,8.72
2018-02-19T12:19:58.956Z,8.81
2018-02-19T12:20:58.988Z,8.90
2018-02-19T12:21:58.911Z,8.93
2018-02-19T12:22:58.911Z,8.68
2018-02-19T12:23:58.858Z,8.81
2018-02-19T12:24:58.915Z,8.72
2018-02-19T12:25:58.809Z,8.71
2018-02-19T12:26:58.827Z,8.62
2018-02-19T12:27:58.764Z,8.58
2018-02-19T12:28:58.842Z,8.39
2018-02-19T12:29:58.716Z,8.42
2018-02-19T12:30:58.751Z,8.39
2018-02-19T12:31:58.669Z,8.39
2018-02-19T12:32:58.667Z,8.36
2018-02-19T12:33:58.622Z,8.33
2018-02-19T12:34:58.681Z,8.21
2018-02-19T12:35:58.573Z,8.07
2018-02-19T12:36:58.592Z,8.14
2018-02-19T12:37:58.526Z,8.10
2018-02-19T12:38:58.608Z,8.11
2018-02-19T12:39:58.475Z,8.10
2018-02-19T12:40:58.516Z,8.28
2018-02-19T12:41:58.431Z,8.45
2018-02-19T12:42:58.423Z,8.58
2018-02-19T12:43:58.380Z,8.75
2018-02-19T12:44:58.440Z,9.01
2018-02-19T12:45:58.331Z,9.10
2018-02-19T12:46:58.346Z,9.10
2018-02-19T12:47:58.283Z,9.18
2018-02-19T12:48:58.365Z,9.04
2018-02-19T12:49:58.239Z,8.94
2018-02-19T12:50:58.283Z,8.93
2018-02-19T12:51:58.188Z,8.94
2018-02-19T12:52:58.187Z,8.78
2018-02-19T12:53:58.145Z,8.55
2018-02-19T12:54:58.203Z,8.63
2018-02-19T12:55:58.099Z,8.62
2018-02-19T12:56:58.113Z,8.57
2018-02-19T12:57:58.051Z,8.39
2018-02-19T12:58:58.129Z,8.47
2018-02-19T12:59:58.003Z,8.42
2018-02-19T13:00:58.051Z,8.37
2018-02-19T13:01:57.957Z,8.36
2018-02-19T13:02:57.933Z,8.36
2018-02-19T13:03:57.910Z,8.15
2018-02-19T13:04:57.965Z,8.15
2018-02-19T13:05:57.864Z,8.17
2018-02-19T13:06:57.992Z,8.14
2018-02-19T13:07:57.814Z,8.07
2018-02-19T13:08:57.792Z,8.12
2018-02-19T13:09:57.769Z,8.12
2018-02-19T13:10:57.801Z,8.02
2018-02-19T13:11:57.718Z,7.90